Time;durP1;ratioP1;P1;durP2;ratioP2;P2;SDS_P1;SDS_P2;PMS_P1;PMS_P2;Temp;Humidity;BMP_temperature;BMP_pressure;BME280_temperature;BME280_humidity;BME280_pressure;Samples;Min_cycle;Max_cycle;Signal;HPM_P1;HPM_P2
2022/09/01 00:01:17;;;;;;;6.30;2.80;;;;;;;10.99;76.26;99026.98;104639;1274;75415;-23
2022/09/01 00:03:47;;;;;;;5.60;2.90;;;;;;;10.62;77.52;99027.55;104596;1274;63075;-23
2022/09/01 00:06:21;;;;;;;4.80;2.60;;;;;;;10.34;78.25;99026.84;104543;1274;61945;-23
2022/09/01 00:08:52;;;;;;;9.60;2.20;;;;;;;10.69;78.16;99027.20;104768;1274;74997;-23
2022/09/01 00:11:20;;;;;;;6.30;3.10;;;;;;;11.05;77.00;99026.11;104969;1271;76861;-24
2022/09/01 00:13:49;;;;;;;5.10;2.40;;;;;;;11.04;75.98;99026.55;104718;1274;74463;-23
2022/09/01 00:16:16;;;;;;;5.40;2.20;;;;;;;10.84;76.13;99022.48;104760;1274;63038;-23
2022/09/01 00:18:48;;;;;;;4.50;2.60;;;;;;;10.56;76.69;99023.20;104872;1274;61116;-23
2022/09/01 00:21:17;;;;;;;7.90;3.00;;;;;;;10.26;77.43;99020.33;104602;1274;76927;-23
2022/09/01 00:23:44;;;;;;;4.10;1.90;;;;;;;10.02;78.19;99018.45;104770;1274;74740;-24
2022/09/01 00:26:11;;;;;;;3.30;2.20;;;;;;;10.36;78.27;99017.67;104689;1274;75011;-23
2022/09/01 00:28:39;;;;;;;4.90;2.60;;;;;;;10.83;76.67;99019.44;104698;1274;63049;-23
2022/09/01 00:31:06;;;;;;;4.70;2.50;;;;;;;10.85;76.04;99022.05;104669;1274;63063;-23
2022/09/01 00:33:34;;;;;;;6.90;3.00;;;;;;;10.63;76.56;99021.79;104716;1274;76575;-23
2022/09/01 00:36:01;;;;;;;4.90;3.00;;;;;;;10.36;77.46;99021.34;104704;1273;75696;-23
2022/09/01 00:38:28;;;;;;;5.40;2.80;;;;;;;10.06;78.18;99017.41;104612;1274;74397;-23
2022/09/01 00:40:55;;;;;;;5.90;2.40;;;;;;;9.83;78.65;99020.83;104570;1274;64588;-23
2022/09/01 00:43:35;;;;;;;8.00;2.50;;;;;;;10.11;78.69;99017.61;104768;1274;61095;-23
2022/09/01 00:46:04;;;;;;;4.80;2.90;;;;;;;10.49;77.12;99017.50;104630;1274;75408;-23
2022/09/01 00:48:35;;;;;;;6.10;2.90;;;;;;;10.37;76.52;99017.39;104693;1274;77000;-23
2022/09/01 00:51:03;;;;;;;5.20;2.90;;;;;;;10.07;77.10;99019.46;105122;1274;74337;-23
2022/09/01 00:53:31;;;;;;;5.50;3.10;;;;;;;9.78;78.11;99018.78;104685;1274;63129;-23
2022/09/01 00:55:58;;;;;;;4.10;2.70;;;;;;;9.51;79.41;99016.71;104698;1274;63028;-23
2022/09/01 00:58:26;;;;;;;4.50;2.10;;;;;;;9.29;80.07;99014.20;104788;1274;75502;-23
2022/09/01 01:00:53;;;;;;;5.00;2.70;;;;;;;9.64;79.89;99013.64;104649;1272;76049;-23
2022/09/01 01:03:20;;;;;;;4.90;3.00;;;;;;;10.13;78.69;99014.62;104675;1274;73700;-24
2022/09/01 01:05:53;;;;;;;4.50;2.60;;;;;;;10.19;78.36;99011.01;104579;1274;63053;-23
2022/09/01 01:08:33;;;;;;;3.70;2.60;;;;;;;10.01;78.37;99011.61;104448;1274;61918;-23
2022/09/01 01:11:16;;;;;;;6.40;3.30;;;;;;;9.68;78.82;99013.16;104629;1274;75478;-23
2022/09/01 01:14:10;;;;;;;4.60;3.10;;;;;;;9.28;80.07;99012.89;104663;1272;76937;-24
2022/09/01 01:16:45;;;;;;;3.00;2.00;;;;;;;9.00;81.73;99023.98;104628;1274;74071;-23
2022/09/01 01:25:43;;;;;;;7.40;3.00;;;;;;;9.93;78.94;99024.35;104998;1274;76506;-24
2022/09/01 01:28:14;;;;;;;6.60;3.20;;;;;;;9.66;79.97;99021.61;104611;1274;75966;-24
2022/09/01 01:30:49;;;;;;;8.10;3.20;;;;;;;9.47;80.58;99020.16;104406;1274;75766;-24
2022/09/01 01:33:18;;;;;;;7.90;3.30;;;;;;;9.26;80.26;99021.04;104622;1274;62799;-24
2022/09/01 01:35:49;;;;;;;5.80;2.30;;;;;;;9.07;80.51;99020.39;104408;1275;62747;-24
2022/09/01 01:38:21;;;;;;;4.60;2.50;;;;;;;9.46;80.36;99022.60;104679;1274;75553;-24
2022/09/01 01:40:50;;;;;;;5.50;2.90;;;;;;;9.98;79.20;99025.73;104685;1274;76955;-25
2022/09/01 01:43:21;;;;;;;4.80;2.80;;;;;;;10.01;78.72;99020.59;104572;1274;73062;-24
2022/09/01 01:45:53;;;;;;;4.50;3.00;;;;;;;9.86;78.76;99024.88;104632;1274;61776;-24
2022/09/01 01:48:24;;;;;;;5.10;2.50;;;;;;;9.62;78.87;99021.56;104645;1275;62102;-24
2022/09/01 01:50:52;;;;;;;5.00;3.10;;;;;;;9.37;79.54;99019.54;104691;1274;76604;-24
2022/09/01 01:53:19;;;;;;;6.50;2.60;;;;;;;9.17;80.60;99019.65;104775;1274;77082;-25
2022/09/01 01:55:50;;;;;;;5.70;2.80;;;;;;;9.54;80.42;99016.43;104833;1274;75420;-24
2022/09/01 01:58:19;;;;;;;4.10;2.30;;;;;;;10.06;78.70;99009.61;104563;1271;61199;-24
2022/09/01 02:00:49;;;;;;;4.10;2.90;;;;;;;10.14;77.69;99008.84;104446;1274;61972;-24
2022/09/01 02:03:20;;;;;;;4.00;2.50;;;;;;;9.97;77.50;99006.38;104627;1274;74486;-24
2022/09/01 02:05:50;;;;;;;5.60;2.80;;;;;;;9.73;77.99;99009.96;104477;1274;75884;-25
2022/09/01 02:08:20;;;;;;;5.60;2.90;;;;;;;9.48;78.24;99010.63;104451;1274;75361;-24
2022/09/01 02:10:49;;;;;;;5.20;2.40;;;;;;;9.23;78.96;99014.13;104413;1274;64447;-24
2022/09/01 02:13:18;;;;;;;6.80;2.50;;;;;;;9.60;78.68;99012.72;104426;1274;62005;-24
2022/09/01 02:15:52;;;;;;;5.70;2.80;;;;;;;10.09;76.90;99013.72;104393;1274;76493;-24
2022/09/01 02:18:33;;;;;;;5.00;2.90;;;;;;;10.09;76.39;99011.85;104570;1276;76835;-25
2022/09/01 02:21:00;;;;;;;3.90;2.80;;;;;;;9.85;76.73;99016.99;104727;1274;75390;-24
2022/09/01 02:23:28;;;;;;;4.50;2.70;;;;;;;9.57;77.81;99016.61;104409;1274;62977;-24
2022/09/01 02:26:01;;;;;;;4.90;2.70;;;;;;;9.29;78.50;99019.21;104618;1274;61934;-23
2022/09/01 02:28:44;;;;;;;4.70;2.00;;;;;;;9.06;79.38;99018.23;104727;1274;76772;-26
2022/09/01 02:31:11;;;;;;;6.60;2.30;;;;;;;9.53;78.97;99021.59;104692;1274;76981;-24
2022/09/01 02:33:39;;;;;;;3.70;2.60;;;;;;;10.03;77.39;99022.17;104873;1274;75425;-24
2022/09/01 02:36:11;;;;;;;5.60;3.20;;;;;;;10.04;77.05;99021.11;104746;1274;62100;-24
2022/09/01 02:38:44;;;;;;;4.60;2.80;;;;;;;9.81;76.97;99025.44;104875;1271;63056;-24
2022/09/01 02:41:19;;;;;;;5.70;2.90;;;;;;;9.50;77.83;99026.28;104848;1274;76349;-24
2022/09/01 02:43:46;;;;;;;4.10;2.90;;;;;;;9.21;78.79;99027.45;104762;1274;77110;-24
2022/09/01 02:46:14;;;;;;;4.80;2.30;;;;;;;8.99;79.70;99033.96;104623;1274;74228;-24
2022/09/01 02:48:44;;;;;;;7.40;2.90;;;;;;;9.29;79.70;99031.70;104658;1274;61741;-24
2022/09/01 02:51:15;;;;;;;6.80;2.80;;;;;;;9.75;77.84;99025.93;104424;1274;62766;-24
2022/09/01 02:53:43;;;;;;;6.30;2.90;;;;;;;9.79;77.28;99027.33;104531;1274;76347;-26
2022/09/01 02:56:13;;;;;;;7.40;2.90;;;;;;;9.60;77.27;99022.91;104431;1275;76995;-24
2022/09/01 02:58:45;;;;;;;5.90;2.80;;;;;;;9.37;77.83;99031.08;104612;1274;75487;-24
2022/09/01 03:01:20;;;;;;;5.40;2.70;;;;;;;9.13;78.19;99031.89;104602;1274;61549;-24
2022/09/01 03:03:48;;;;;;;5.80;2.00;;;;;;;8.93;78.69;99031.29;104580;1274;63130;-24
2022/09/01 03:06:18;;;;;;;5.80;2.20;;;;;;;9.35;78.65;99028.97;104698;1274;75528;-25
2022/09/01 03:08:46;;;;;;;5.20;2.60;;;;;;;9.88;77.08;99029.27;104871;1274;76010;-24
2022/09/01 03:11:13;;;;;;;5.30;2.60;;;;;;;9.91;76.28;99027.60;104602;1274;74371;-24
2022/09/01 03:13:40;;;;;;;5.00;2.50;;;;;;;9.69;76.64;99029.50;104574;1274;61645;-24
2022/09/01 03:16:08;;;;;;;6.00;2.80;;;;;;;9.41;77.52;99028.19;104705;1274;61985;-24
2022/09/01 03:18:35;;;;;;;5.00;2.80;;;;;;;9.13;78.31;99027.04;104688;1276;76581;-23
2022/09/01 03:21:04;;;;;;;5.10;2.20;;;;;;;8.90;79.27;99029.98;104846;1274;76072;-24
2022/09/01 03:23:32;;;;;;;3.40;2.00;;;;;;;9.22;79.25;99030.18;104651;1274;74325;-24
2022/09/01 03:26:00;;;;;;;3.30;2.10;;;;;;;9.69;77.28;99030.06;104788;1274;63301;-24
2022/09/01 03:28:28;;;;;;;7.40;2.50;;;;;;;9.70;76.61;99028.58;104644;1275;61157;-24
2022/09/01 03:30:56;;;;;;;3.70;2.40;;;;;;;9.48;77.14;99025.61;104633;1275;76679;-23
2022/09/01 03:33:25;;;;;;;9.40;3.10;;;;;;;9.22;77.82;99027.27;104600;1277;77068;-23
2022/09/01 03:35:53;;;;;;;9.30;2.60;;;;;;;8.97;78.92;99031.49;104936;1274;75438;-23
2022/09/01 03:38:23;;;;;;;6.10;1.80;;;;;;;8.79;79.79;99034.92;104732;1274;63371;-23
2022/09/01 03:41:03;;;;;;;5.30;2.40;;;;;;;9.20;79.59;99039.64;104672;1274;62100;-24
2022/09/01 03:43:32;;;;;;;5.00;3.00;;;;;;;9.71;77.43;99041.50;104651;1275;75494;-26
2022/09/01 03:46:02;;;;;;;6.30;3.10;;;;;;;9.66;77.50;99041.17;104748;1276;75916;-25
2022/09/01 03:48:31;;;;;;;4.40;3.00;;;;;;;9.45;78.10;99045.89;104764;1274;75210;-25
2022/09/01 03:51:01;;;;;;;5.70;2.50;;;;;;;9.27;78.49;99047.25;104635;1274;61734;-25
2022/09/01 03:53:31;;;;;;;4.80;2.60;;;;;;;9.12;78.83;99044.96;104620;1272;61684;-25
2022/09/01 03:55:58;;;;;;;6.80;2.20;;;;;;;9.05;79.35;99042.01;104621;1274;76327;-23
2022/09/01 03:58:26;;;;;;;3.40;2.20;;;;;;;9.59;78.71;99041.23;104727;1274;75980;-24
2022/09/01 04:00:54;;;;;;;7.60;2.80;;;;;;;10.16;76.87;99035.54;104688;1274;75425;-24
2022/09/01 04:03:24;;;;;;;4.00;2.70;;;;;;;10.25;76.22;99038.64;104616;1275;63192;-24
2022/09/01 04:05:59;;;;;;;5.50;3.30;;;;;;;10.11;76.45;99039.64;104620;1275;62945;-23
2022/09/01 04:08:29;;;;;;;3.90;2.60;;;;;;;9.98;77.03;99039.95;104581;1277;76597;-22
2022/09/01 04:11:01;;;;;;;4.30;2.80;;;;;;;9.89;77.68;99042.22;104617;1277;76854;-25
2022/09/01 04:13:34;;;;;;;3.50;1.90;;;;;;;9.88;78.02;99042.96;104335;1274;74329;-24
2022/09/01 04:16:02;;;;;;;6.80;2.20;;;;;;;10.47;77.27;99039.88;104580;1275;62001;-25
2022/09/01 04:18:29;;;;;;;6.60;2.30;;;;;;;10.99;74.42;99043.34;104473;1274;62635;-26
2022/09/01 04:20:58;;;;;;;6.10;2.20;;;;;;;10.99;74.16;99044.70;104561;1277;77038;-24
2022/09/01 04:23:28;;;;;;;3.80;2.80;;;;;;;10.77;74.88;99044.23;104639;1274;75850;-24
2022/09/01 04:25:58;;;;;;;8.20;2.90;;;;;;;10.49;75.78;99045.62;104625;1277;74797;-23
2022/09/01 04:28:34;;;;;;;6.80;2.80;;;;;;;10.26;76.53;99044.83;104500;1274;63363;-24
2022/09/01 04:31:04;;;;;;;5.90;2.60;;;;;;;10.04;77.71;99048.62;104307;1278;61798;-23
2022/09/01 04:33:38;;;;;;;6.10;2.20;;;;;;;9.93;78.45;99050.18;104531;1275;76843;-24
2022/09/01 04:36:32;;;;;;;7.70;2.20;;;;;;;10.49;78.17;99045.60;104420;1278;76222;-25
2022/09/01 04:39:00;;;;;;;6.60;2.70;;;;;;;11.15;75.85;99045.84;104344;1274;74126;-25
2022/09/01 04:41:32;;;;;;;3.80;2.30;;;;;;;11.20;75.75;99048.88;104360;1274;63089;-23
2022/09/01 04:44:03;;;;;;;5.90;3.40;;;;;;;11.05;75.94;99047.16;104626;1277;61136;-24
2022/09/01 04:46:36;;;;;;;5.60;2.80;;;;;;;10.88;76.36;99043.33;104513;1274;76576;-24
2022/09/01 04:49:09;;;;;;;4.10;2.60;;;;;;;10.70;76.65;99047.97;104523;1277;77105;-24
2022/09/01 04:51:40;;;;;;;4.30;2.00;;;;;;;10.55;77.75;99047.19;104592;1274;75443;-24
2022/09/01 04:54:15;;;;;;;6.50;2.10;;;;;;;11.09;77.68;99048.20;104444;1275;61248;-24
2022/09/01 04:56:48;;;;;;;3.10;2.30;;;;;;;11.74;75.77;99049.69;104599;1275;62011;-24
2022/09/01 04:59:16;;;;;;;16.10;2.80;;;;;;;11.90;74.52;99042.07;104637;1274;76548;-23
2022/09/01 05:01:58;;;;;;;30.40;3.60;;;;;;;11.91;74.83;99043.52;104497;1277;75959;-24
2022/09/01 05:04:32;;;;;;;15.90;3.20;;;;;;;11.91;74.56;99040.73;104527;1274;75468;-24
2022/09/01 05:07:00;;;;;;;5.10;3.10;;;;;;;11.99;73.91;99036.39;104480;1275;63086;-24
2022/09/01 05:09:36;;;;;;;6.10;3.00;;;;;;;12.06;73.88;99037.08;104632;1275;62103;-24
2022/09/01 05:12:32;;;;;;;3.40;2.00;;;;;;;12.27;73.58;99032.45;104455;1274;74594;-24
2022/09/01 05:15:05;;;;;;;4.00;2.30;;;;;;;13.15;70.39;99033.59;104618;1274;77020;-24
2022/09/01 05:17:32;;;;;;;4.20;2.80;;;;;;;13.83;67.16;99031.85;104620;1274;73792;-25
2022/09/01 05:20:00;;;;;;;4.90;2.60;;;;;;;14.05;67.56;99035.03;104696;1274;63064;-24
2022/09/01 05:22:30;;;;;;;5.50;2.70;;;;;;;14.05;66.81;99037.25;104647;1274;61876;-24
2022/09/01 05:25:10;;;;;;;5.50;2.10;;;;;;;13.91;67.40;99037.20;104679;1274;76625;-24
2022/09/01 05:27:45;;;;;;;7.50;2.30;;;;;;;13.72;65.45;99037.40;104772;1274;74680;-24
2022/09/01 05:30:15;;;;;;;6.10;2.10;;;;;;;13.58;66.40;99040.32;104426;1277;75552;-24
2022/09/01 05:32:43;;;;;;;9.30;2.50;;;;;;;13.55;67.85;99040.20;104615;1276;61834;-24
2022/09/01 05:35:11;;;;;;;4.10;2.30;;;;;;;13.46;68.19;99033.89;104706;1275;61960;-24
2022/09/01 05:37:40;;;;;;;58.90;5.60;;;;;;;13.48;68.00;99033.14;104767;1274;75429;-24
2022/09/01 05:40:14;;;;;;;3.90;1.90;;;;;;;13.41;67.18;99035.61;104616;1274;76085;-24
2022/09/01 05:42:43;;;;;;;3.60;2.20;;;;;;;13.36;67.48;99036.36;104639;1274;75465;-24
2022/09/01 05:45:11;;;;;;;4.20;2.20;;;;;;;13.30;67.69;99039.89;104616;1274;61952;-24
2022/09/01 05:47:39;;;;;;;2.50;1.30;;;;;;;13.25;67.91;99033.34;104552;1275;62861;-24
2022/09/01 05:50:09;;;;;;;2.10;1.40;;;;;;;13.77;66.15;99032.06;104442;1275;76347;-24
2022/09/01 05:52:43;;;;;;;83.80;6.10;;;;;;;14.33;64.37;99035.98;104629;1275;77454;-24
2022/09/01 05:55:10;;;;;;;21.40;2.80;;;;;;;14.42;64.78;99037.31;104674;1275;74155;-24
2022/09/01 05:57:40;;;;;;;4.80;2.10;;;;;;;14.31;63.85;99043.48;104646;1274;62783;-24
2022/09/01 06:00:12;;;;;;;5.20;2.00;;;;;;;14.17;64.03;99040.53;104659;1275;62110;-24
2022/09/01 06:02:41;;;;;;;4.70;2.10;;;;;;;14.00;65.49;99041.39;104785;1274;76598;-24
2022/09/01 06:05:14;;;;;;;4.30;2.20;;;;;;;13.85;65.85;99044.73;104686;1274;75791;-24
2022/09/01 06:07:41;;;;;;;4.80;2.00;;;;;;;13.74;67.52;99049.20;104634;1274;73374;-24
2022/09/01 06:10:09;;;;;;;5.70;2.00;;;;;;;13.69;66.22;99046.42;104652;1273;62071;-24
2022/09/01 06:12:37;;;;;;;4.50;1.90;;;;;;;13.60;66.24;99049.55;104677;1274;61086;-24
2022/09/01 06:15:14;;;;;;;3.40;2.20;;;;;;;13.51;67.34;99055.23;104757;1274;74828;-24
2022/09/01 06:17:45;;;;;;;4.60;2.10;;;;;;;13.47;68.75;99053.34;104583;1275;76878;-24
2022/09/01 06:20:16;;;;;;;4.80;2.30;;;;;;;13.49;68.59;99051.95;104718;1274;74808;-24
2022/09/01 06:22:44;;;;;;;6.80;1.60;;;;;;;14.13;67.13;99048.89;104651;1274;63015;-24
2022/09/01 06:25:11;;;;;;;8.20;2.60;;;;;;;14.68;63.95;99048.64;104673;1274;61767;-24
2022/09/01 06:27:42;;;;;;;5.40;2.00;;;;;;;14.05;63.44;99055.38;104615;1274;76499;-24
2022/09/01 06:30:16;;;;;;;3.50;1.70;;;;;;;14.11;64.09;99059.56;104647;1274;75925;-24
2022/09/01 06:32:53;;;;;;;6.60;1.80;;;;;;;14.64;63.79;99057.98;104668;1274;75501;-24
2022/09/01 06:35:21;;;;;;;7.50;2.10;;;;;;;14.72;62.10;99060.85;104594;1275;63029;-24
2022/09/01 06:37:48;;;;;;;6.10;2.40;;;;;;;14.11;63.18;99061.10;104636;1274;61780;-24
2022/09/01 06:40:34;;;;;;;2.80;1.60;;;;;;;14.11;62.43;99066.67;104637;1274;75352;-24
2022/09/01 06:43:06;;;;;;;4.40;2.20;;;;;;;14.56;63.05;99062.16;104636;1274;76812;-24
2022/09/01 06:45:41;;;;;;;3.20;1.60;;;;;;;14.78;62.52;99063.10;104660;1274;75121;-24
2022/09/01 06:48:08;;;;;;;3.40;1.70;;;;;;;14.96;61.42;99067.22;104401;1274;62090;-24
2022/09/01 06:50:36;;;;;;;4.00;2.00;;;;;;;15.05;60.66;99067.10;104765;1274;61982;-23
2022/09/01 06:53:23;;;;;;;6.20;1.60;;;;;;;15.12;59.06;99067.55;104721;1274;76565;-24
2022/09/01 06:56:01;;;;;;;6.00;1.50;;;;;;;14.98;59.01;99063.05;104899;1274;77176;-24
2022/09/01 06:58:29;;;;;;;4.50;1.60;;;;;;;15.19;59.60;99063.20;104505;1277;75415;-24
2022/09/01 07:00:57;;;;;;;2.20;1.20;;;;;;;15.33;58.90;99066.26;104645;1274;61881;-24
2022/09/01 07:03:24;;;;;;;4.30;1.70;;;;;;;15.46;58.73;99067.34;104778;1273;62538;-23
2022/09/01 07:06:11;;;;;;;3.10;1.10;;;;;;;15.60;57.95;99072.20;104629;1274;73964;-25
2022/09/01 07:09:26;;;;;;;2.40;1.30;;;;;;;15.88;57.01;99071.48;104690;1274;75907;-25
2022/09/01 07:12:22;;;;;;;2.20;1.30;;;;;;;16.03;57.94;99072.09;104712;1274;75541;-24
2022/09/01 07:14:52;;;;;;;5.40;1.20;;;;;;;16.04;57.62;99070.05;104717;1274;61706;-25
2022/09/01 07:17:41;;;;;;;2.00;1.20;;;;;;;16.21;57.20;99068.98;104588;1274;61816;-23
2022/09/01 07:20:10;;;;;;;3.70;1.50;;;;;;;16.28;57.32;99071.16;103049;1275;2021836;-23
2022/09/01 07:22:54;;;;;;;22.90;2.10;;;;;;;16.13;56.87;99068.96;104635;1274;77103;-23
2022/09/01 07:25:36;;;;;;;5.90;1.00;;;;;;;16.42;54.51;99068.19;104642;1275;75163;-23
2022/09/01 07:28:31;;;;;;;3.00;1.20;;;;;;;16.42;53.63;99067.83;104677;1274;63138;-23
2022/09/01 07:31:07;;;;;;;3.40;1.40;;;;;;;16.21;54.00;99067.73;104590;1271;62891;-23
2022/09/01 07:33:57;;;;;;;5.00;1.40;;;;;;;16.59;54.08;99069.63;104567;1274;76403;-24
2022/09/01 07:36:45;;;;;;;7.00;1.30;;;;;;;16.73;53.24;99065.06;104596;1274;77017;-24
2022/09/01 07:39:33;;;;;;;5.30;1.50;;;;;;;17.00;53.27;99065.89;104654;1274;75547;-24
2022/09/01 07:42:34;;;;;;;3.70;1.40;;;;;;;17.23;52.17;99067.70;104642;1274;62959;-24
2022/09/01 07:45:44;;;;;;;4.40;1.10;;;;;;;17.40;50.47;99068.97;104650;1274;62881;-24
2022/09/01 07:48:26;;;;;;;2.10;1.00;;;;;;;17.61;49.67;99071.46;104485;1274;75521;-24
2022/09/01 07:51:18;;;;;;;3.70;1.00;;;;;;;17.48;49.38;99069.58;104511;1274;77349;-24
2022/09/01 07:54:03;;;;;;;3.70;1.00;;;;;;;17.71;49.19;99068.27;104506;1274;75605;-24
2022/09/01 07:56:31;;;;;;;3.20;0.90;;;;;;;17.94;48.72;99064.27;104745;1274;61821;-24
2022/09/01 07:59:05;;;;;;;2.40;0.80;;;;;;;17.93;48.28;99064.34;104739;1274;61373;-24
2022/09/01 08:01:33;;;;;;;31.60;2.20;;;;;;;17.79;49.15;99067.20;104656;1274;74542;-24
2022/09/01 08:04:03;;;;;;;2.10;0.90;;;;;;;17.79;48.28;99069.59;104568;1274;76150;-23
2022/09/01 08:06:30;;;;;;;6.10;1.50;;;;;;;18.00;48.91;99067.63;104681;1274;74256;-24
2022/09/01 08:09:07;;;;;;;3.90;0.90;;;;;;;18.00;47.96;99063.23;104640;1274;63022;-24
2022/09/01 08:11:38;;;;;;;4.60;1.00;;;;;;;18.08;47.26;99059.35;104662;1274;62359;-24
2022/09/01 08:14:25;;;;;;;1.70;0.90;;;;;;;18.32;46.61;99054.96;104703;1274;76599;-23
2022/09/01 08:16:52;;;;;;;5.40;1.00;;;;;;;18.46;45.01;99051.11;104556;1274;77062;-24
2022/09/01 08:19:19;;;;;;;2.30;0.80;;;;;;;18.79;45.37;99048.00;104655;1271;74396;-25
2022/09/01 08:22:03;;;;;;;2.00;0.80;;;;;;;19.02;46.09;99054.17;104699;1274;62069;-23
2022/09/01 08:24:49;;;;;;;1.40;0.50;;;;;;;19.22;43.66;99046.93;104716;1274;62071;-23
2022/09/01 08:27:16;;;;;;;2.30;0.80;;;;;;;19.09;42.66;99049.83;104635;1274;75277;-23
2022/09/01 08:29:43;;;;;;;4.40;0.90;;;;;;;19.01;42.18;99046.52;104589;1273;77824;-23
2022/09/01 08:32:10;;;;;;;1.50;0.80;;;;;;;18.91;43.76;99050.17;104616;1271;74171;-23
2022/09/01 08:34:37;;;;;;;1.40;0.70;;;;;;;19.09;44.50;99048.44;104578;1274;63111;-23
2022/09/01 08:37:05;;;;;;;1.60;0.70;;;;;;;18.98;43.14;99040.70;104816;1274;61653;-24
2022/09/01 08:39:33;;;;;;;2.30;0.80;;;;;;;18.89;43.23;99038.95;104722;1274;76368;-27
2022/09/01 08:42:15;;;;;;;2.70;0.80;;;;;;;18.91;43.97;99040.11;104657;1274;76966;-25
2022/09/01 08:46:23;;;;;;;2.40;0.90;;;;;;;19.14;44.27;99039.90;101616;1309;601212;-23
2022/09/01 08:48:56;;;;;;;6.40;0.80;;;;;;;19.17;44.80;99044.48;103943;1287;63043;-23
2022/09/01 08:52:30;;;;;;;1.20;0.80;;;;;;;19.40;43.38;99039.88;103560;1286;62080;-23
2022/09/01 08:55:16;;;;;;;2.80;0.70;;;;;;;19.43;43.37;99033.47;104443;1283;74986;-23
2022/09/01 08:57:44;;;;;;;2.70;1.00;;;;;;;19.65;44.75;99032.61;104418;1284;75973;-23
2022/09/01 09:00:25;;;;;;;11.40;1.50;;;;;;;19.86;42.93;99035.42;102709;1281;2204424;-23
2022/09/01 09:03:12;;;;;;;20.90;2.40;;;;;;;20.02;42.84;99036.23;104367;1277;63570;-23
2022/09/01 09:05:42;;;;;;;1.60;0.90;;;;;;;20.23;43.31;99035.50;104610;1278;63199;-23
2022/09/01 09:08:12;;;;;;;4.30;0.80;;;;;;;20.09;42.34;99031.33;104678;1276;75036;-23
2022/09/01 09:10:58;;;;;;;1.70;0.70;;;;;;;19.48;42.59;99030.36;104650;1277;77102;-25
2022/09/01 09:13:47;;;;;;;4.30;0.90;;;;;;;19.68;41.91;99023.05;104587;1276;74751;-23
2022/09/01 09:16:17;;;;;;;3.40;1.10;;;;;;;20.21;41.41;99020.56;104555;1277;62842;-23
2022/09/01 09:18:51;;;;;;;1.10;0.70;;;;;;;20.16;40.84;99022.42;104455;1278;63588;-23
2022/09/01 09:21:35;;;;;;;0.90;0.50;;;;;;;20.18;41.45;99016.86;104590;1277;75080;-23
2022/09/01 09:24:10;;;;;;;0.70;0.60;;;;;;;20.24;40.79;99022.82;104600;1277;76977;-23
2022/09/01 09:26:37;;;;;;;1.30;0.70;;;;;;;20.44;40.14;99023.89;104448;1276;74368;-23
2022/09/01 09:29:11;;;;;;;1.40;0.70;;;;;;;20.86;40.21;99016.08;104618;1277;62459;-23
2022/09/01 09:31:47;;;;;;;1.40;0.80;;;;;;;20.70;39.23;99022.36;104616;1276;63209;-24
2022/09/01 09:34:31;;;;;;;2.50;0.60;;;;;;;21.08;39.91;99019.52;104482;1277;75677;-23
2022/09/01 09:37:23;;;;;;;1.00;0.70;;;;;;;20.92;38.42;99012.52;104385;1277;77061;-23
2022/09/01 09:40:21;;;;;;;3.70;0.70;;;;;;;20.87;39.72;99018.36;104441;1276;75648;-23
2022/09/01 09:42:54;;;;;;;3.30;1.00;;;;;;;20.71;39.49;99017.14;104311;1277;61880;-23
2022/09/01 09:45:39;;;;;;;1.40;0.80;;;;;;;20.60;40.05;99015.05;104528;1276;63168;-23
2022/09/01 09:48:09;;;;;;;0.60;0.60;;;;;;;20.80;39.84;99022.50;104225;1276;74726;-23
2022/09/01 09:50:42;;;;;;;1.40;0.60;;;;;;;21.24;39.31;99023.52;104287;1278;76364;-24
2022/09/01 09:53:10;;;;;;;0.80;0.60;;;;;;;21.59;39.16;99022.06;104495;1276;75150;-23
2022/09/01 09:55:52;;;;;;;5.60;1.20;;;;;;;21.50;37.84;99020.63;104373;1277;61720;-25
2022/09/01 09:58:27;;;;;;;0.90;0.70;;;;;;;21.15;39.12;99015.73;104540;1277;61158;-23
2022/09/01 10:01:02;;;;;;;6.20;0.70;;;;;;;21.17;38.36;99019.09;104181;1278;74683;-24
2022/09/01 10:03:41;;;;;;;4.00;0.60;;;;;;;21.30;38.92;99012.75;104332;1276;77346;-24
2022/09/01 10:06:13;;;;;;;5.30;1.50;;;;;;;21.42;37.35;99014.73;104410;1277;74344;-25
2022/09/01 10:08:46;;;;;;;1.70;0.80;;;;;;;21.53;37.86;99016.61;104586;1277;63116;-24
2022/09/01 10:11:27;;;;;;;;;;;;;;;21.24;38.17;99020.58;104565;1277;61905;-25
2022/09/01 10:14:04;;;;;;;2.20;0.60;;;;;;;20.54;38.66;99027.05;104459;1276;75817;-24
2022/09/01 10:16:32;;;;;;;0.70;0.60;;;;;;;20.69;39.49;99029.52;104508;1276;76957;-24
2022/09/01 10:18:59;;;;;;;1.50;0.80;;;;;;;21.49;37.30;99029.05;104445;1276;74422;-24
2022/09/01 10:21:28;;;;;;;3.60;1.00;;;;;;;21.87;36.44;99027.93;104447;1276;62054;-24
2022/09/01 10:23:55;;;;;;;6.10;1.30;;;;;;;22.00;36.56;99029.02;104562;1276;61753;-24
2022/09/01 10:26:46;;;;;;;6.60;0.90;;;;;;;22.35;36.10;99019.54;104591;1276;75753;-24
2022/09/01 10:29:17;;;;;;;2.20;0.90;;;;;;;21.88;36.19;99027.67;104354;1277;77537;-24
2022/09/01 10:31:44;;;;;;;1.70;0.70;;;;;;;21.75;37.17;99027.77;104428;1278;73480;-23
2022/09/01 10:34:15;;;;;;;5.00;0.80;;;;;;;21.11;37.45;99026.05;104489;1277;63099;-25
2022/09/01 10:36:45;;;;;;;2.30;0.70;;;;;;;21.04;37.77;99027.31;104603;1276;61220;-24
2022/09/01 10:39:20;;;;;;;5.10;1.20;;;;;;;21.42;38.11;99026.98;104535;1276;73733;-24
2022/09/01 10:41:56;;;;;;;0.90;0.50;;;;;;;21.63;37.40;99024.45;104662;1276;76149;-24
2022/09/01 10:44:34;;;;;;;1.40;0.80;;;;;;;21.89;37.61;99023.65;104254;1276;74085;-24
2022/09/01 10:47:03;;;;;;;1.30;0.60;;;;;;;22.13;36.04;99014.84;104380;1276;63691;-24
2022/09/01 10:49:34;;;;;;;0.60;0.50;;;;;;;22.45;35.93;99007.36;104680;1276;62601;-24
2022/09/01 10:52:01;;;;;;;3.70;0.80;;;;;;;22.47;35.60;99011.57;104433;1276;73949;-24
2022/09/01 10:54:40;;;;;;;;;;;;;;;21.53;37.06;99017.85;104403;1276;77011;-24
2022/09/01 10:57:22;;;;;;;1.00;0.60;;;;;;;20.79;38.71;99024.52;104357;1276;75546;-24
2022/09/01 10:59:56;;;;;;;7.70;0.90;;;;;;;20.42;39.87;99025.55;104400;1276;62124;-24
2022/09/01 11:02:24;;;;;;;1.50;0.60;;;;;;;20.13;41.01;99023.45;104546;1276;61523;-23
2022/09/01 11:05:00;;;;;;;1.60;0.50;;;;;;;20.03;41.65;99025.34;104469;1276;73876;-25
2022/09/01 11:07:29;;;;;;;5.00;0.60;;;;;;;20.44;39.65;99017.80;104390;1276;75823;-26
2022/09/01 11:10:19;;;;;;;1.10;0.70;;;;;;;20.26;39.23;99013.09;104521;1276;74335;-24
2022/09/01 11:13:23;;;;;;;3.80;0.60;;;;;;;20.13;41.24;99011.86;104473;1276;63068;-25
2022/09/01 11:15:50;;;;;;;0.50;0.50;;;;;;;20.23;40.21;99013.78;104529;1276;61981;-25
2022/09/01 11:18:29;;;;;;;3.10;0.50;;;;;;;20.78;38.69;99016.90;104668;1276;75798;-25
2022/09/01 11:21:16;;;;;;;2.00;0.50;;;;;;;20.95;38.04;99009.55;104563;1276;76955;-25
2022/09/01 11:23:45;;;;;;;2.90;0.80;;;;;;;20.57;39.49;99002.59;104619;1276;75425;-24
2022/09/01 11:26:31;;;;;;;6.40;1.10;;;;;;;20.10;41.61;99009.33;104511;1276;61145;-25
2022/09/01 11:28:59;;;;;;;2.60;0.60;;;;;;;19.59;41.49;99007.35;104433;1279;62708;-25
2022/09/01 11:31:30;;;;;;;20.70;1.30;;;;;;;19.51;41.46;99007.48;104650;1272;74880;-25
2022/09/01 11:34:00;;;;;;;2.20;0.60;;;;;;;19.71;41.90;99003.79;104476;1273;75858;-22
2022/09/01 11:36:33;;;;;;;1.90;0.60;;;;;;;20.31;41.08;99000.99;104646;1273;75435;-23
2022/09/01 11:39:14;;;;;;;2.20;0.70;;;;;;;20.87;39.55;98998.65;104780;1273;63099;-23
2022/09/01 11:41:52;;;;;;;3.50;1.70;;;;;;;20.65;38.67;98993.67;104620;1273;61808;-24
2022/09/01 11:44:31;;;;;;;3.30;0.70;;;;;;;21.16;39.03;98993.33;104699;1273;74747;-24
2022/09/01 11:47:04;;;;;;;1.40;0.60;;;;;;;21.67;38.11;98992.55;104567;1273;75781;-25
2022/09/01 11:50:01;;;;;;;3.30;0.60;;;;;;;22.05;36.55;98992.16;104436;1273;73672;-25
2022/09/01 11:52:35;;;;;;;0.80;0.50;;;;;;;21.88;35.69;98986.99;104650;1273;61775;-23
2022/09/01 11:55:03;;;;;;;0.60;0.40;;;;;;;21.58;37.50;98989.08;104432;1273;61036;-23
2022/09/01 11:57:36;;;;;;;1.70;0.60;;;;;;;21.16;37.34;98984.45;104370;1273;75522;-25
2022/09/01 12:00:06;;;;;;;1.40;0.50;;;;;;;20.46;38.96;98982.62;104414;1274;76022;-24
2022/09/01 12:02:43;;;;;;;0.80;0.60;;;;;;;19.95;39.82;98981.18;104789;1273;75540;-24
2022/09/01 12:05:31;;;;;;;3.70;0.70;;;;;;;19.81;41.35;98983.61;104724;1274;62302;-24